Brohard, West Virginia
Current Conditions -  °F | °C
As of 6:53 PM on Wednesday 22 Oct 2014 (Local Time) from KPKB Reporting Station
Overcast Overcast  
Wind Chill: 50°   Ceiling: 2800
Heat Index: 50°   Visibility: 10mi
Dew Point: 42°   Wind: 5mph
Humidity: 74%   Direction: 320°NW
Pressure: 30.23"   Gusts: NA
Location:  39.04°N, 81.18°W
Report Text: KPKB 222253Z 32004KT 10SM OVC028 10/06 A3023 RMK AO2 SLP237 T01000056
Loading
Personal Weather Stations






























Interactive Weather Map
Tropical Storm Tracking
New forecast layout! Learn more

10-Day Weather Forecast

Advertisements
Track Severe Weather on mobile